sensor_id;sensor_type;location;lat;lon;timestamp;temperature;humidity
21092;DHT22;10704;42.678;23.288;2023-07-08T00:02:13;18.60;99.90
21092;DHT22;10704;42.678;23.288;2023-07-08T00:04:39;18.70;99.90
21092;DHT22;10704;42.678;23.288;2023-07-08T00:07:09;18.70;99.90
21092;DHT22;10704;42.678;23.288;2023-07-08T00:09:36;18.70;99.90
21092;DHT22;10704;42.678;23.288;2023-07-08T00:12:04;18.70;99.90
21092;DHT22;10704;42.678;23.288;2023-07-08T00:14:33;18.60;99.90
21092;DHT22;10704;42.678;23.288;2023-07-08T00:16:58;18.60;99.90
21092;DHT22;10704;42.678;23.288;2023-07-08T00:19:24;18.60;99.90
21092;DHT22;10704;42.678;23.288;2023-07-08T00:21:51;18.60;99.90
21092;DHT22;10704;42.678;23.288;2023-07-08T00:24:19;18.50;99.90
21092;DHT22;10704;42.678;23.288;2023-07-08T00:26:45;18.50;99.90
21092;DHT22;10704;42.678;23.288;2023-07-08T00:29:11;18.50;99.90
21092;DHT22;10704;42.678;23.288;2023-07-08T00:31:37;18.40;99.90
21092;DHT22;10704;42.678;23.288;2023-07-08T00:34:03;18.40;99.90
21092;DHT22;10704;42.678;23.288;2023-07-08T00:36:29;18.50;99.90
21092;DHT22;10704;42.678;23.288;2023-07-08T00:38:56;18.40;99.90
21092;DHT22;10704;42.678;23.288;2023-07-08T00:41:33;18.40;99.90
21092;DHT22;10704;42.678;23.288;2023-07-08T00:44:00;18.30;99.90
21092;DHT22;10704;42.678;23.288;2023-07-08T00:51:38;18.30;99.90
21092;DHT22;10704;42.678;23.288;2023-07-08T00:54:15;18.20;99.90
21092;DHT22;10704;42.678;23.288;2023-07-08T00:56:55;18.20;99.90
21092;DHT22;10704;42.678;23.288;2023-07-08T00:59:25;18.20;99.90
21092;DHT22;10704;42.678;23.288;2023-07-08T01:01:54;18.20;99.90
21092;DHT22;10704;42.678;23.288;2023-07-08T01:07:10;18.20;99.90
21092;DHT22;10704;42.678;23.288;2023-07-08T01:09:41;18.20;99.90
21092;DHT22;10704;42.678;23.288;2023-07-08T01:12:12;18.20;99.90
21092;DHT22;10704;42.678;23.288;2023-07-08T01:14:39;18.10;99.90
21092;DHT22;10704;42.678;23.288;2023-07-08T01:17:08;18.10;99.90
21092;DHT22;10704;42.678;23.288;2023-07-08T01:19:41;18.10;99.90
21092;DHT22;10704;42.678;23.288;2023-07-08T01:22:08;18.10;99.90
21092;DHT22;10704;42.678;23.288;2023-07-08T01:24:39;18.10;99.90
21092;DHT22;10704;42.678;23.288;2023-07-08T01:27:08;18.00;99.90
21092;DHT22;10704;42.678;23.288;2023-07-08T01:29:35;18.10;99.90
21092;DHT22;10704;42.678;23.288;2023-07-08T01:32:01;18.10;99.90
21092;DHT22;10704;42.678;23.288;2023-07-08T01:34:35;18.10;99.90
21092;DHT22;10704;42.678;23.288;2023-07-08T01:37:04;18.10;99.90
21092;DHT22;10704;42.678;23.288;2023-07-08T01:39:31;18.10;99.90
21092;DHT22;10704;42.678;23.288;2023-07-08T01:41:58;18.10;99.90
21092;DHT22;10704;42.678;23.288;2023-07-08T01:44:35;18.10;99.90
21092;DHT22;10704;42.678;23.288;2023-07-08T01:47:16;18.10;99.90
21092;DHT22;10704;42.678;23.288;2023-07-08T01:49:46;18.10;99.90
21092;DHT22;10704;42.678;23.288;2023-07-08T01:52:14;18.10;99.90
21092;DHT22;10704;42.678;23.288;2023-07-08T01:54:41;18.00;99.90
21092;DHT22;10704;42.678;23.288;2023-07-08T01:57:07;18.00;99.90
21092;DHT22;10704;42.678;23.288;2023-07-08T01:59:32;18.10;99.90
21092;DHT22;10704;42.678;23.288;2023-07-08T02:01:58;18.00;99.90
21092;DHT22;10704;42.678;23.288;2023-07-08T02:04:25;18.00;99.90
21092;DHT22;10704;42.678;23.288;2023-07-08T02:06:55;18.00;99.90
21092;DHT22;10704;42.678;23.288;2023-07-08T02:09:22;18.00;99.90
21092;DHT22;10704;42.678;23.288;2023-07-08T02:11:48;18.00;99.90
21092;DHT22;10704;42.678;23.288;2023-07-08T02:14:14;18.00;99.90
21092;DHT22;10704;42.678;23.288;2023-07-08T02:16:40;18.00;99.90
21092;DHT22;10704;42.678;23.288;2023-07-08T02:19:06;18.00;99.90
21092;DHT22;10704;42.678;23.288;2023-07-08T02:21:31;18.00;99.90
21092;DHT22;10704;42.678;23.288;2023-07-08T02:23:58;17.90;99.90
21092;DHT22;10704;42.678;23.288;2023-07-08T02:26:23;17.90;99.90
21092;DHT22;10704;42.678;23.288;2023-07-08T02:28:49;17.90;99.90
21092;DHT22;10704;42.678;23.288;2023-07-08T02:31:15;17.90;99.90
21092;DHT22;10704;42.678;23.288;2023-07-08T02:33:41;17.90;99.90
21092;DHT22;10704;42.678;23.288;2023-07-08T02:36:07;17.90;99.90
21092;DHT22;10704;42.678;23.288;2023-07-08T02:38:33;17.90;99.90
21092;DHT22;10704;42.678;23.288;2023-07-08T02:41:00;17.90;99.90
21092;DHT22;10704;42.678;23.288;2023-07-08T02:43:26;17.90;99.90
21092;DHT22;10704;42.678;23.288;2023-07-08T02:45:52;17.90;99.90
21092;DHT22;10704;42.678;23.288;2023-07-08T02:48:19;17.80;99.90
21092;DHT22;10704;42.678;23.288;2023-07-08T02:50:45;17.90;99.90
21092;DHT22;10704;42.678;23.288;2023-07-08T02:53:11;17.90;99.90
21092;DHT22;10704;42.678;23.288;2023-07-08T02:55:39;17.90;99.90
21092;DHT22;10704;42.678;23.288;2023-07-08T02:58:05;17.90;99.90
21092;DHT22;10704;42.678;23.288;2023-07-08T03:00:30;18.00;99.90
21092;DHT22;10704;42.678;23.288;2023-07-08T03:02:56;17.90;99.90
21092;DHT22;10704;42.678;23.288;2023-07-08T03:05:22;17.90;99.90
21092;DHT22;10704;42.678;23.288;2023-07-08T03:07:48;17.90;99.90
21092;DHT22;10704;42.678;23.288;2023-07-08T03:10:13;17.80;99.90
21092;DHT22;10704;42.678;23.288;2023-07-08T03:12:39;17.80;99.90
21092;DHT22;10704;42.678;23.288;2023-07-08T03:15:06;17.80;99.90
21092;DHT22;10704;42.678;23.288;2023-07-08T03:17:32;17.90;99.90
21092;DHT22;10704;42.678;23.288;2023-07-08T03:19:57;17.90;99.90
21092;DHT22;10704;42.678;23.288;2023-07-08T03:22:23;17.80;99.90
21092;DHT22;10704;42.678;23.288;2023-07-08T03:24:49;17.80;99.90
21092;DHT22;10704;42.678;23.288;2023-07-08T03:27:18;17.80;99.90
21092;DHT22;10704;42.678;23.288;2023-07-08T03:29:47;17.90;99.90
21092;DHT22;10704;42.678;23.288;2023-07-08T03:32:13;17.90;99.90
21092;DHT22;10704;42.678;23.288;2023-07-08T03:34:40;17.90;99.90
21092;DHT22;10704;42.678;23.288;2023-07-08T03:37:06;18.00;99.90
21092;DHT22;10704;42.678;23.288;2023-07-08T03:39:32;18.00;99.90
21092;DHT22;10704;42.678;23.288;2023-07-08T03:41:58;18.10;99.90
21092;DHT22;10704;42.678;23.288;2023-07-08T03:44:25;18.20;99.90
21092;DHT22;10704;42.678;23.288;2023-07-08T03:46:51;18.20;99.90
21092;DHT22;10704;42.678;23.288;2023-07-08T03:49:19;18.10;99.90
21092;DHT22;10704;42.678;23.288;2023-07-08T03:51:53;18.10;99.90
21092;DHT22;10704;42.678;23.288;2023-07-08T03:54:22;18.10;99.90
21092;DHT22;10704;42.678;23.288;2023-07-08T03:56:48;18.10;99.90
21092;DHT22;10704;42.678;23.288;2023-07-08T03:59:15;18.20;99.90
21092;DHT22;10704;42.678;23.288;2023-07-08T04:01:41;18.30;99.90
21092;DHT22;10704;42.678;23.288;2023-07-08T04:04:12;18.30;99.90
21092;DHT22;10704;42.678;23.288;2023-07-08T04:06:38;18.40;99.90
21092;DHT22;10704;42.678;23.288;2023-07-08T04:09:05;18.40;99.90
21092;DHT22;10704;42.678;23.288;2023-07-08T04:11:32;18.50;99.90
21092;DHT22;10704;42.678;23.288;2023-07-08T04:13:58;18.60;99.90
21092;DHT22;10704;42.678;23.288;2023-07-08T04:16:31;18.70;99.90
21092;DHT22;10704;42.678;23.288;2023-07-08T04:18:57;18.60;99.90
21092;DHT22;10704;42.678;23.288;2023-07-08T04:21:24;18.80;99.90
21092;DHT22;10704;42.678;23.288;2023-07-08T04:23:53;18.80;99.90
21092;DHT22;10704;42.678;23.288;2023-07-08T04:26:19;19.00;99.90
21092;DHT22;10704;42.678;23.288;2023-07-08T04:28:45;19.00;99.90
21092;DHT22;10704;42.678;23.288;2023-07-08T04:31:11;19.00;99.90
21092;DHT22;10704;42.678;23.288;2023-07-08T04:33:37;18.90;99.90
21092;DHT22;10704;42.678;23.288;2023-07-08T04:36:03;18.80;99.90
21092;DHT22;10704;42.678;23.288;2023-07-08T04:38:29;18.90;99.90
21092;DHT22;10704;42.678;23.288;2023-07-08T04:40:55;19.00;99.90
21092;DHT22;10704;42.678;23.288;2023-07-08T04:43:23;18.80;99.90
21092;DHT22;10704;42.678;23.288;2023-07-08T04:45:54;18.80;99.90
21092;DHT22;10704;42.678;23.288;2023-07-08T04:48:21;18.80;99.90
21092;DHT22;10704;42.678;23.288;2023-07-08T04:50:49;18.80;99.90
21092;DHT22;10704;42.678;23.288;2023-07-08T04:53:15;18.80;99.90
21092;DHT22;10704;42.678;23.288;2023-07-08T04:55:54;18.80;99.90
21092;DHT22;10704;42.678;23.288;2023-07-08T04:58:20;18.90;99.90
21092;DHT22;10704;42.678;23.288;2023-07-08T05:00:46;19.00;99.90
21092;DHT22;10704;42.678;23.288;2023-07-08T05:03:12;19.00;99.90
21092;DHT22;10704;42.678;23.288;2023-07-08T05:05:38;19.00;99.90
21092;DHT22;10704;42.678;23.288;2023-07-08T05:08:05;19.20;99.90
21092;DHT22;10704;42.678;23.288;2023-07-08T05:10:31;19.30;99.90
21092;DHT22;10704;42.678;23.288;2023-07-08T05:12:57;19.30;99.90
21092;DHT22;10704;42.678;23.288;2023-07-08T05:15:22;19.30;99.90
21092;DHT22;10704;42.678;23.288;2023-07-08T05:17:50;19.30;99.90
21092;DHT22;10704;42.678;23.288;2023-07-08T05:20:16;19.60;99.90
21092;DHT22;10704;42.678;23.288;2023-07-08T05:22:44;19.60;99.90
21092;DHT22;10704;42.678;23.288;2023-07-08T05:25:11;19.70;99.90
21092;DHT22;10704;42.678;23.288;2023-07-08T05:27:37;19.90;99.90
21092;DHT22;10704;42.678;23.288;2023-07-08T05:30:04;19.80;99.90
21092;DHT22;10704;42.678;23.288;2023-07-08T05:32:31;19.80;99.90
21092;DHT22;10704;42.678;23.288;2023-07-08T05:34:57;20.00;99.90
21092;DHT22;10704;42.678;23.288;2023-07-08T05:37:23;20.20;99.90
21092;DHT22;10704;42.678;23.288;2023-07-08T05:39:54;20.20;99.90
21092;DHT22;10704;42.678;23.288;2023-07-08T05:42:21;20.30;99.90
21092;DHT22;10704;42.678;23.288;2023-07-08T05:44:47;20.20;99.90
21092;DHT22;10704;42.678;23.288;2023-07-08T05:47:14;20.20;99.90
21092;DHT22;10704;42.678;23.288;2023-07-08T05:49:40;20.10;99.90
21092;DHT22;10704;42.678;23.288;2023-07-08T05:52:06;20.20;99.90
21092;DHT22;10704;42.678;23.288;2023-07-08T05:54:37;20.10;99.90
21092;DHT22;10704;42.678;23.288;2023-07-08T05:57:05;20.00;99.90
21092;DHT22;10704;42.678;23.288;2023-07-08T05:59:31;20.10;99.90
21092;DHT22;10704;42.678;23.288;2023-07-08T06:01:57;20.00;99.90
21092;DHT22;10704;42.678;23.288;2023-07-08T06:04:23;20.00;99.90
21092;DHT22;10704;42.678;23.288;2023-07-08T06:06:49;20.00;99.90
21092;DHT22;10704;42.678;23.288;2023-07-08T06:09:14;19.90;99.90
21092;DHT22;10704;42.678;23.288;2023-07-08T06:11:40;19.90;99.90
21092;DHT22;10704;42.678;23.288;2023-07-08T06:14:06;19.80;99.90
21092;DHT22;10704;42.678;23.288;2023-07-08T06:16:33;19.90;99.90
21092;DHT22;10704;42.678;23.288;2023-07-08T06:19:00;19.90;99.90
21092;DHT22;10704;42.678;23.288;2023-07-08T06:21:26;19.90;99.90
21092;DHT22;10704;42.678;23.288;2023-07-08T06:23:52;20.10;99.90
21092;DHT22;10704;42.678;23.288;2023-07-08T06:26:18;20.10;99.90
21092;DHT22;10704;42.678;23.288;2023-07-08T06:28:44;20.10;99.90
21092;DHT22;10704;42.678;23.288;2023-07-08T06:31:09;20.10;99.90
21092;DHT22;10704;42.678;23.288;2023-07-08T06:33:36;20.20;99.90
21092;DHT22;10704;42.678;23.288;2023-07-08T06:36:01;20.40;99.90
21092;DHT22;10704;42.678;23.288;2023-07-08T06:38:28;20.40;99.90
21092;DHT22;10704;42.678;23.288;2023-07-08T06:40:54;20.50;99.90
21092;DHT22;10704;42.678;23.288;2023-07-08T06:43:20;20.90;99.90
21092;DHT22;10704;42.678;23.288;2023-07-08T06:46:00;21.30;99.90
21092;DHT22;10704;42.678;23.288;2023-07-08T06:48:26;21.30;99.90
21092;DHT22;10704;42.678;23.288;2023-07-08T06:50:52;21.60;99.90
21092;DHT22;10704;42.678;23.288;2023-07-08T06:53:17;21.70;99.90
21092;DHT22;10704;42.678;23.288;2023-07-08T06:55:45;21.60;99.90
21092;DHT22;10704;42.678;23.288;2023-07-08T06:58:11;21.50;99.90
21092;DHT22;10704;42.678;23.288;2023-07-08T07:00:38;21.50;99.90
21092;DHT22;10704;42.678;23.288;2023-07-08T07:03:06;21.80;99.90
21092;DHT22;10704;42.678;23.288;2023-07-08T07:05:32;21.90;99.90
21092;DHT22;10704;42.678;23.288;2023-07-08T07:07:58;22.10;99.90
21092;DHT22;10704;42.678;23.288;2023-07-08T07:10:23;22.40;99.90
21092;DHT22;10704;42.678;23.288;2023-07-08T07:12:49;22.40;99.90
21092;DHT22;10704;42.678;23.288;2023-07-08T07:15:15;22.50;99.90
21092;DHT22;10704;42.678;23.288;2023-07-08T07:17:41;22.60;99.90
21092;DHT22;10704;42.678;23.288;2023-07-08T07:20:08;22.80;99.90
21092;DHT22;10704;42.678;23.288;2023-07-08T07:22:34;22.80;99.90
21092;DHT22;10704;42.678;23.288;2023-07-08T07:25:01;22.50;99.90
21092;DHT22;10704;42.678;23.288;2023-07-08T07:27:27;22.60;99.90
21092;DHT22;10704;42.678;23.288;2023-07-08T07:29:53;22.80;99.90
21092;DHT22;10704;42.678;23.288;2023-07-08T07:32:22;22.50;99.90
21092;DHT22;10704;42.678;23.288;2023-07-08T07:34:49;22.10;99.90
21092;DHT22;10704;42.678;23.288;2023-07-08T07:37:17;21.80;99.90
21092;DHT22;10704;42.678;23.288;2023-07-08T07:39:44;21.60;99.90
21092;DHT22;10704;42.678;23.288;2023-07-08T07:42:11;21.50;99.90
21092;DHT22;10704;42.678;23.288;2023-07-08T07:44:37;21.60;99.90
21092;DHT22;10704;42.678;23.288;2023-07-08T07:47:06;21.70;99.90
21092;DHT22;10704;42.678;23.288;2023-07-08T07:49:32;21.50;99.90
21092;DHT22;10704;42.678;23.288;2023-07-08T07:51:58;22.10;99.90
21092;DHT22;10704;42.678;23.288;2023-07-08T07:54:24;22.60;99.90
21092;DHT22;10704;42.678;23.288;2023-07-08T07:56:51;23.20;99.90
21092;DHT22;10704;42.678;23.288;2023-07-08T07:59:16;22.50;99.90
21092;DHT22;10704;42.678;23.288;2023-07-08T08:01:42;22.40;99.90
21092;DHT22;10704;42.678;23.288;2023-07-08T08:04:09;22.50;99.90
21092;DHT22;10704;42.678;23.288;2023-07-08T08:06:36;22.90;99.90
21092;DHT22;10704;42.678;23.288;2023-07-08T08:09:03;23.10;99.90
21092;DHT22;10704;42.678;23.288;2023-07-08T08:11:29;23.20;99.90
21092;DHT22;10704;42.678;23.288;2023-07-08T08:13:56;23.10;99.90
21092;DHT22;10704;42.678;23.288;2023-07-08T08:16:22;23.30;99.90
21092;DHT22;10704;42.678;23.288;2023-07-08T08:18:48;23.50;99.90
21092;DHT22;10704;42.678;23.288;2023-07-08T08:21:14;23.80;99.90
21092;DHT22;10704;42.678;23.288;2023-07-08T08:23:40;24.20;99.90
21092;DHT22;10704;42.678;23.288;2023-07-08T08:26:06;24.50;99.90
21092;DHT22;10704;42.678;23.288;2023-07-08T08:28:32;24.00;99.90
21092;DHT22;10704;42.678;23.288;2023-07-08T08:30:58;24.20;99.90
21092;DHT22;10704;42.678;23.288;2023-07-08T08:33:23;24.60;99.90
21092;DHT22;10704;42.678;23.288;2023-07-08T08:35:49;24.80;99.90
21092;DHT22;10704;42.678;23.288;2023-07-08T08:38:15;25.20;99.90
21092;DHT22;10704;42.678;23.288;2023-07-08T08:40:43;24.90;99.90
21092;DHT22;10704;42.678;23.288;2023-07-08T08:43:20;24.80;99.90
21092;DHT22;10704;42.678;23.288;2023-07-08T08:46:45;24.50;99.90
21092;DHT22;10704;42.678;23.288;2023-07-08T08:48:56;24.70;99.90
21092;DHT22;10704;42.678;23.288;2023-07-08T08:51:26;25.10;99.90
21092;DHT22;10704;42.678;23.288;2023-07-08T08:53:56;25.50;99.90
21092;DHT22;10704;42.678;23.288;2023-07-08T08:56:26;25.60;99.90
21092;DHT22;10704;42.678;23.288;2023-07-08T09:01:18;25.80;99.90
21092;DHT22;10704;42.678;23.288;2023-07-08T09:06:14;25.60;99.90
21092;DHT22;10704;42.678;23.288;2023-07-08T09:08:41;25.30;99.90
21092;DHT22;10704;42.678;23.288;2023-07-08T09:13:46;24.50;99.90
21092;DHT22;10704;42.678;23.288;2023-07-08T09:21:40;25.60;99.90
21092;DHT22;10704;42.678;23.288;2023-07-08T09:24:54;26.20;99.90
21092;DHT22;10704;42.678;23.288;2023-07-08T09:27:22;26.30;97.70
21092;DHT22;10704;42.678;23.288;2023-07-08T09:29:48;26.70;97.10
21092;DHT22;10704;42.678;23.288;2023-07-08T09:32:22;26.60;95.40
21092;DHT22;10704;42.678;23.288;2023-07-08T09:34:54;27.10;94.80
21092;DHT22;10704;42.678;23.288;2023-07-08T09:39:54;27.30;94.00
21092;DHT22;10704;42.678;23.288;2023-07-08T09:42:22;27.10;93.20
21092;DHT22;10704;42.678;23.288;2023-07-08T09:44:55;26.70;92.80
21092;DHT22;10704;42.678;23.288;2023-07-08T09:47:28;26.60;93.50
21092;DHT22;10704;42.678;23.288;2023-07-08T09:49:57;26.10;93.80
21092;DHT22;10704;42.678;23.288;2023-07-08T09:52:23;26.40;94.60
21092;DHT22;10704;42.678;23.288;2023-07-08T09:54:49;27.20;93.20
21092;DHT22;10704;42.678;23.288;2023-07-08T09:57:32;27.10;92.60
21092;DHT22;10704;42.678;23.288;2023-07-08T10:00:06;27.40;91.00
21092;DHT22;10704;42.678;23.288;2023-07-08T10:02:55;27.70;91.20
21092;DHT22;10704;42.678;23.288;2023-07-08T10:05:39;28.00;90.50
21092;DHT22;10704;42.678;23.288;2023-07-08T10:08:19;27.70;90.20
21092;DHT22;10704;42.678;23.288;2023-07-08T10:10:48;27.10;90.00
21092;DHT22;10704;42.678;23.288;2023-07-08T10:13:37;27.10;91.00
21092;DHT22;10704;42.678;23.288;2023-07-08T10:16:32;27.50;90.30
21092;DHT22;10704;42.678;23.288;2023-07-08T10:18:59;28.10;89.40
21092;DHT22;10704;42.678;23.288;2023-07-08T10:21:34;28.20;87.80
21092;DHT22;10704;42.678;23.288;2023-07-08T10:24:58;27.30;87.70
21092;DHT22;10704;42.678;23.288;2023-07-08T10:40:28;29.00;82.10
21092;DHT22;10704;42.678;23.288;2023-07-08T10:48:50;29.50;77.70
21092;DHT22;10704;42.678;23.288;2023-07-08T11:05:42;28.50;79.20
21092;DHT22;10704;42.678;23.288;2023-07-08T11:08:25;28.60;79.30
21092;DHT22;10704;42.678;23.288;2023-07-08T11:14:19;28.70;77.70
21092;DHT22;10704;42.678;23.288;2023-07-08T11:17:04;29.20;75.20
21092;DHT22;10704;42.678;23.288;2023-07-08T11:19:38;29.20;74.50
21092;DHT22;10704;42.678;23.288;2023-07-08T11:22:11;29.70;73.80
21092;DHT22;10704;42.678;23.288;2023-07-08T11:24:47;29.10;73.60
21092;DHT22;10704;42.678;23.288;2023-07-08T11:27:22;29.30;74.70
21092;DHT22;10704;42.678;23.288;2023-07-08T11:29:56;29.00;74.90
21092;DHT22;10704;42.678;23.288;2023-07-08T11:32:27;29.20;75.40
21092;DHT22;10704;42.678;23.288;2023-07-08T11:34:55;29.30;73.70
21092;DHT22;10704;42.678;23.288;2023-07-08T11:37:23;29.60;73.40
21092;DHT22;10704;42.678;23.288;2023-07-08T11:42:41;29.10;74.20
21092;DHT22;10704;42.678;23.288;2023-07-08T11:47:48;29.60;71.60
21092;DHT22;10704;42.678;23.288;2023-07-08T11:50:31;28.50;73.70
21092;DHT22;10704;42.678;23.288;2023-07-08T11:53:01;28.30;75.70
21092;DHT22;10704;42.678;23.288;2023-07-08T11:58:07;27.70;77.60
21092;DHT22;10704;42.678;23.288;2023-07-08T12:00:33;28.60;75.70
21092;DHT22;10704;42.678;23.288;2023-07-08T12:03:21;28.60;75.40
21092;DHT22;10704;42.678;23.288;2023-07-08T12:05:47;28.20;75.50
21092;DHT22;10704;42.678;23.288;2023-07-08T12:08:15;28.10;73.80
21092;DHT22;10704;42.678;23.288;2023-07-08T12:10:49;27.50;74.30
21092;DHT22;10704;42.678;23.288;2023-07-08T12:13:18;28.00;73.70
21092;DHT22;10704;42.678;23.288;2023-07-08T12:15:44;28.20;73.40
21092;DHT22;10704;42.678;23.288;2023-07-08T12:20:49;29.00;72.70
21092;DHT22;10704;42.678;23.288;2023-07-08T12:23:20;28.50;73.20
21092;DHT22;10704;42.678;23.288;2023-07-08T12:25:46;27.80;74.90
21092;DHT22;10704;42.678;23.288;2023-07-08T12:28:14;27.80;74.10
21092;DHT22;10704;42.678;23.288;2023-07-08T12:30:41;27.40;75.50
21092;DHT22;10704;42.678;23.288;2023-07-08T12:33:30;27.10;76.60
21092;DHT22;10704;42.678;23.288;2023-07-08T12:35:59;27.20;77.10
21092;DHT22;10704;42.678;23.288;2023-07-08T12:38:35;27.20;76.60
21092;DHT22;10704;42.678;23.288;2023-07-08T12:41:10;27.10;77.60
21092;DHT22;10704;42.678;23.288;2023-07-08T12:43:36;26.90;76.90
21092;DHT22;10704;42.678;23.288;2023-07-08T12:46:02;26.70;77.50
21092;DHT22;10704;42.678;23.288;2023-07-08T12:48:36;26.90;78.20
21092;DHT22;10704;42.678;23.288;2023-07-08T12:51:04;26.70;79.20
21092;DHT22;10704;42.678;23.288;2023-07-08T12:53:30;26.30;80.70
21092;DHT22;10704;42.678;23.288;2023-07-08T12:55:58;26.80;80.30
21092;DHT22;10704;42.678;23.288;2023-07-08T12:58:26;27.30;78.90
21092;DHT22;10704;42.678;23.288;2023-07-08T13:00:54;27.70;78.40
21092;DHT22;10704;42.678;23.288;2023-07-08T13:03:23;27.90;77.80
21092;DHT22;10704;42.678;23.288;2023-07-08T13:05:51;28.40;77.50
21092;DHT22;10704;42.678;23.288;2023-07-08T13:08:21;28.40;76.20
21092;DHT22;10704;42.678;23.288;2023-07-08T13:10:49;28.40;76.10
21092;DHT22;10704;42.678;23.288;2023-07-08T13:13:25;28.20;75.90
21092;DHT22;10704;42.678;23.288;2023-07-08T13:15:52;28.00;75.80
21092;DHT22;10704;42.678;23.288;2023-07-08T13:18:23;27.60;76.70
21092;DHT22;10704;42.678;23.288;2023-07-08T13:20:52;27.80;77.40
21092;DHT22;10704;42.678;23.288;2023-07-08T13:23:19;27.70;77.10
21092;DHT22;10704;42.678;23.288;2023-07-08T13:25:52;28.00;76.60
21092;DHT22;10704;42.678;23.288;2023-07-08T13:28:23;27.80;77.10
21092;DHT22;10704;42.678;23.288;2023-07-08T13:30:55;27.90;75.80
21092;DHT22;10704;42.678;23.288;2023-07-08T13:33:22;27.60;76.40
21092;DHT22;10704;42.678;23.288;2023-07-08T13:35:50;27.60;76.20
21092;DHT22;10704;42.678;23.288;2023-07-08T13:38:18;27.40;75.80
21092;DHT22;10704;42.678;23.288;2023-07-08T13:40:48;27.60;77.60
21092;DHT22;10704;42.678;23.288;2023-07-08T13:43:15;28.10;76.40
21092;DHT22;10704;42.678;23.288;2023-07-08T13:45:45;28.30;75.70
21092;DHT22;10704;42.678;23.288;2023-07-08T13:48:30;28.40;75.60
21092;DHT22;10704;42.678;23.288;2023-07-08T13:51:05;28.40;74.80
21092;DHT22;10704;42.678;23.288;2023-07-08T13:54:21;27.70;76.70
21092;DHT22;10704;42.678;23.288;2023-07-08T13:56:31;27.70;76.30
21092;DHT22;10704;42.678;23.288;2023-07-08T13:59:08;28.30;75.40
21092;DHT22;10704;42.678;23.288;2023-07-08T14:01:38;28.70;74.80
21092;DHT22;10704;42.678;23.288;2023-07-08T14:04:05;28.60;74.60
21092;DHT22;10704;42.678;23.288;2023-07-08T14:06:34;28.50;75.10
21092;DHT22;10704;42.678;23.288;2023-07-08T14:09:21;28.70;73.10
21092;DHT22;10704;42.678;23.288;2023-07-08T14:11:48;28.70;73.10
21092;DHT22;10704;42.678;23.288;2023-07-08T14:14:14;28.20;74.30
21092;DHT22;10704;42.678;23.288;2023-07-08T14:16:43;28.50;74.40
21092;DHT22;10704;42.678;23.288;2023-07-08T14:19:20;28.50;73.90
21092;DHT22;10704;42.678;23.288;2023-07-08T14:21:53;28.00;74.90
21092;DHT22;10704;42.678;23.288;2023-07-08T14:24:19;28.30;74.80
21092;DHT22;10704;42.678;23.288;2023-07-08T14:26:46;28.30;74.30
21092;DHT22;10704;42.678;23.288;2023-07-08T14:29:13;28.10;74.90
21092;DHT22;10704;42.678;23.288;2023-07-08T14:31:39;28.00;75.60
21092;DHT22;10704;42.678;23.288;2023-07-08T14:34:08;28.00;75.30
21092;DHT22;10704;42.678;23.288;2023-07-08T14:36:34;28.50;75.30
21092;DHT22;10704;42.678;23.288;2023-07-08T14:39:00;28.30;73.80
21092;DHT22;10704;42.678;23.288;2023-07-08T14:41:30;27.50;75.80
21092;DHT22;10704;42.678;23.288;2023-07-08T14:43:56;27.10;77.10
21092;DHT22;10704;42.678;23.288;2023-07-08T14:46:22;27.30;77.00
21092;DHT22;10704;42.678;23.288;2023-07-08T14:48:48;27.90;76.60
21092;DHT22;10704;42.678;23.288;2023-07-08T14:51:13;28.10;75.30
21092;DHT22;10704;42.678;23.288;2023-07-08T14:53:39;28.20;75.40
21092;DHT22;10704;42.678;23.288;2023-07-08T14:56:13;28.40;74.00
21092;DHT22;10704;42.678;23.288;2023-07-08T14:58:43;28.50;74.00
21092;DHT22;10704;42.678;23.288;2023-07-08T15:01:15;28.60;73.50
21092;DHT22;10704;42.678;23.288;2023-07-08T15:03:42;28.00;75.10
21092;DHT22;10704;42.678;23.288;2023-07-08T15:06:10;28.10;75.60
21092;DHT22;10704;42.678;23.288;2023-07-08T15:08:36;28.20;74.30
21092;DHT22;10704;42.678;23.288;2023-07-08T15:11:01;28.70;73.80
21092;DHT22;10704;42.678;23.288;2023-07-08T15:13:31;29.30;71.80
21092;DHT22;10704;42.678;23.288;2023-07-08T15:15:57;28.90;71.80
21092;DHT22;10704;42.678;23.288;2023-07-08T15:18:24;28.60;72.50
21092;DHT22;10704;42.678;23.288;2023-07-08T15:20:50;28.60;72.70
21092;DHT22;10704;42.678;23.288;2023-07-08T15:23:16;28.20;73.00
21092;DHT22;10704;42.678;23.288;2023-07-08T15:25:43;27.50;74.90
21092;DHT22;10704;42.678;23.288;2023-07-08T15:28:37;27.20;75.60
21092;DHT22;10704;42.678;23.288;2023-07-08T15:31:08;26.90;76.60
21092;DHT22;10704;42.678;23.288;2023-07-08T15:33:35;26.80;77.00
21092;DHT22;10704;42.678;23.288;2023-07-08T15:36:01;26.60;78.00
21092;DHT22;10704;42.678;23.288;2023-07-08T15:38:26;26.40;78.70
21092;DHT22;10704;42.678;23.288;2023-07-08T15:40:53;26.40;79.30
21092;DHT22;10704;42.678;23.288;2023-07-08T15:43:18;26.30;79.80
21092;DHT22;10704;42.678;23.288;2023-07-08T15:45:45;26.00;80.70
21092;DHT22;10704;42.678;23.288;2023-07-08T15:48:16;26.00;80.80
21092;DHT22;10704;42.678;23.288;2023-07-08T15:50:43;26.30;80.70
21092;DHT22;10704;42.678;23.288;2023-07-08T15:53:09;25.90;80.70
21092;DHT22;10704;42.678;23.288;2023-07-08T15:55:45;25.70;81.60
21092;DHT22;10704;42.678;23.288;2023-07-08T15:58:27;25.70;81.70
21092;DHT22;10704;42.678;23.288;2023-07-08T16:00:54;25.70;82.50
21092;DHT22;10704;42.678;23.288;2023-07-08T16:03:28;25.50;82.70
21092;DHT22;10704;42.678;23.288;2023-07-08T16:05:56;25.60;82.80
21092;DHT22;10704;42.678;23.288;2023-07-08T16:08:23;25.40;83.00
21092;DHT22;10704;42.678;23.288;2023-07-08T16:10:55;25.30;83.30
21092;DHT22;10704;42.678;23.288;2023-07-08T16:13:32;25.10;83.60
21092;DHT22;10704;42.678;23.288;2023-07-08T16:16:00;25.00;84.50
21092;DHT22;10704;42.678;23.288;2023-07-08T16:18:25;24.90;84.80
21092;DHT22;10704;42.678;23.288;2023-07-08T16:20:52;24.80;84.40
21092;DHT22;10704;42.678;23.288;2023-07-08T16:23:18;25.00;85.00
21092;DHT22;10704;42.678;23.288;2023-07-08T16:25:47;25.40;84.20
21092;DHT22;10704;42.678;23.288;2023-07-08T16:28:19;25.70;83.00
21092;DHT22;10704;42.678;23.288;2023-07-08T16:30:47;26.00;81.30
21092;DHT22;10704;42.678;23.288;2023-07-08T16:33:14;25.90;81.80
21092;DHT22;10704;42.678;23.288;2023-07-08T16:35:40;25.90;81.20
21092;DHT22;10704;42.678;23.288;2023-07-08T16:38:07;25.60;81.60